Time;durP1;ratioP1;P1;durP2;ratioP2;P2;SDS_P1;SDS_P2;PMS_P1;PMS_P2;Temp;Humidity;BMP_temperature;BMP_pressure;BME280_temperature;BME280_humidity;BME280_pressure;Samples;Min_cycle;Max_cycle;Signal;HPM_P1;HPM_P2
2022/10/09 00:02:25;;;;;;;13.30;6.28;;;;;;;9.30;78.95;99762.78;4965326;28;20026;-93
2022/10/09 00:04:50;;;;;;;8.60;5.30;;;;;;;9.18;79.03;99751.34;4965547;28;20026;-93
2022/10/09 00:07:16;;;;;;;9.82;5.60;;;;;;;9.35;78.62;99762.03;4965627;28;20087;-93
2022/10/09 00:09:41;;;;;;;11.80;6.05;;;;;;;9.46;78.86;99753.03;4965596;28;20056;-93
2022/10/09 00:12:07;;;;;;;13.88;6.47;;;;;;;9.42;78.47;99735.78;4966094;28;20026;-92
2022/10/09 00:14:32;;;;;;;9.75;5.05;;;;;;;9.37;77.88;99733.03;4966379;28;20034;-93
2022/10/09 00:16:58;;;;;;;10.45;5.97;;;;;;;9.36;77.79;99733.28;4967066;28;20029;-92
2022/10/09 00:19:23;;;;;;;8.27;5.72;;;;;;;9.29;78.08;99723.53;4981577;28;20025;-93
2022/10/09 00:21:51;;;;;;;9.73;5.72;;;;;;;9.44;78.48;99739.03;4982771;28;20017;-93
2022/10/09 00:24:17;;;;;;;12.05;6.00;;;;;;;9.41;78.42;99731.47;4965895;28;20444;-93
2022/10/09 00:26:42;;;;;;;11.25;5.53;;;;;;;9.31;77.47;99734.03;4965737;28;20033;-93
2022/10/09 00:29:08;;;;;;;11.82;5.35;;;;;;;9.26;77.69;99742.03;4964688;28;20084;-93
2022/10/09 00:31:40;;;;;;;8.77;4.90;;;;;;;9.13;77.81;99732.50;4965170;28;20050;-93
2022/10/09 00:34:06;;;;;;;12.23;5.63;;;;;;;9.08;77.57;99727.84;4983293;28;20044;-93
2022/10/09 00:36:31;;;;;;;11.65;5.50;;;;;;;9.04;78.29;99723.22;4961806;28;20054;-93
2022/10/09 00:38:57;;;;;;;9.23;5.60;;;;;;;8.87;78.35;99713.34;4977571;28;20554;-93
2022/10/09 00:41:28;;;;;;;7.78;5.55;;;;;;;8.85;78.38;99720.03;4993767;28;20019;-92
2022/10/09 00:43:55;;;;;;;10.70;5.47;;;;;;;8.89;78.92;99729.22;4976016;28;20026;-92
2022/10/09 00:46:32;;;;;;;11.25;5.50;;;;;;;8.88;78.80;99724.91;4961852;28;20019;-92
2022/10/09 00:49:06;;;;;;;9.07;5.18;;;;;;;9.09;79.02;99753.66;4978691;28;20026;-93
2022/10/09 00:51:32;;;;;;;7.93;5.68;;;;;;;9.04;78.65;99734.78;4977701;28;20212;-92
2022/10/09 00:53:57;;;;;;;12.48;6.05;;;;;;;9.00;78.57;99736.34;4945421;28;20026;-92
2022/10/09 00:56:24;;;;;;;8.63;5.97;;;;;;;8.88;78.87;99717.66;4945483;28;20031;-93
2022/10/09 00:58:51;;;;;;;9.60;5.30;;;;;;;8.91;78.46;99719.03;4945284;28;20496;-93
2022/10/09 01:01:17;;;;;;;8.00;5.28;;;;;;;9.16;78.54;99745.41;4945128;28;20077;-93
2022/10/09 01:03:42;;;;;;;7.90;5.25;;;;;;;9.08;79.00;99727.03;4961369;28;20026;-93
2022/10/09 01:06:21;;;;;;;7.57;5.65;;;;;;;9.05;78.53;99725.66;4961567;28;20022;-93
2022/10/09 01:08:54;;;;;;;8.80;6.03;;;;;;;9.09;78.55;99732.16;4946742;28;20037;-93
2022/10/09 01:11:28;;;;;;;10.25;5.95;;;;;;;9.00;78.96;99722.09;4978950;28;20022;-93
2022/10/09 01:14:03;;;;;;;7.25;5.63;;;;;;;9.01;78.84;99739.84;4993570;28;20026;-95
2022/10/09 01:16:35;;;;;;;9.70;6.00;;;;;;;9.05;78.50;99744.47;4977534;28;20025;-92
2022/10/09 01:19:10;;;;;;;10.35;5.75;;;;;;;9.08;78.82;99749.34;4977543;28;20109;-91
2022/10/09 01:21:41;;;;;;;12.00;6.10;;;;;;;9.08;79.05;99751.22;4978094;28;20030;-92
2022/10/09 01:24:22;;;;;;;9.25;5.50;;;;;;;9.30;77.79;99760.09;4977459;28;20023;-92
2022/10/09 01:26:50;;;;;;;8.23;5.35;;;;;;;9.38;77.37;99760.72;5009957;28;20026;-93
2022/10/09 01:29:16;;;;;;;9.73;5.65;;;;;;;9.24;77.26;99731.53;5010418;28;20026;-92
2022/10/09 01:31:42;;;;;;;7.60;5.47;;;;;;;9.28;77.56;99745.28;4977402;28;20056;-92
2022/10/09 01:34:08;;;;;;;16.60;6.82;;;;;;;9.33;77.21;99739.97;4977283;28;20022;-92
2022/10/09 01:36:33;;;;;;;10.38;5.57;;;;;;;9.16;77.55;99753.47;4977033;28;20053;-92
2022/10/09 01:38:59;;;;;;;12.63;5.75;;;;;;;9.09;77.92;99742.91;4977108;28;20022;-92
2022/10/09 01:41:25;;;;;;;8.13;5.15;;;;;;;9.08;77.19;99738.59;4961361;28;20512;-92
2022/10/09 01:43:50;;;;;;;13.85;5.55;;;;;;;9.15;77.65;99751.84;4976520;28;20117;-92
2022/10/09 01:46:30;;;;;;;12.52;5.53;;;;;;;9.05;78.21;99746.34;4976882;28;20030;-93
2022/10/09 01:49:25;;;;;;;9.63;5.82;;;;;;;9.17;77.70;99749.75;4971033;28;20022;-93
2022/10/09 01:51:56;;;;;;;9.93;5.80;;;;;;;9.04;77.87;99740.16;4942533;28;20046;-94
2022/10/09 01:54:50;;;;;;;8.57;4.97;;;;;;;9.01;77.96;99745.22;4925697;28;20150;-92
2022/10/09 01:57:18;;;;;;;9.48;5.13;;;;;;;8.92;77.87;99747.50;4953899;28;20126;-93
2022/10/09 01:59:43;;;;;;;9.02;5.07;;;;;;;8.94;77.85;99764.19;4962083;28;20080;-94
2022/10/09 02:02:09;;;;;;;8.70;5.53;;;;;;;8.81;77.95;99748.44;4980417;28;20030;-95
2022/10/09 02:04:36;;;;;;;10.20;5.70;;;;;;;8.78;78.19;99751.59;4981472;28;20113;-95
2022/10/09 02:07:01;;;;;;;6.80;5.30;;;;;;;8.79;78.10;99742.50;4980856;28;20026;-94
2022/10/09 02:09:27;;;;;;;8.20;5.07;;;;;;;8.79;78.23;99754.06;4981522;28;20022;-92
2022/10/09 02:11:54;;;;;;;8.43;5.30;;;;;;;8.83;78.37;99765.13;4982166;28;20062;-94
2022/10/09 02:14:19;;;;;;;8.65;5.80;;;;;;;8.73;78.10;99754.22;4977177;28;20030;-94
2022/10/09 02:16:46;;;;;;;9.18;5.20;;;;;;;8.73;77.67;99754.22;4948614;28;20026;-94
2022/10/09 02:19:25;;;;;;;7.82;5.18;;;;;;;8.75;78.02;99760.97;4965394;28;20058;-94
2022/10/09 02:21:56;;;;;;;8.80;5.30;;;;;;;8.66;78.20;99760.59;4981040;28;20487;-93
2022/10/09 02:24:21;;;;;;;8.23;5.22;;;;;;;8.61;78.45;99754.31;4948559;28;20030;-94
2022/10/09 02:26:47;;;;;;;7.40;5.07;;;;;;;8.58;77.85;99765.56;4965244;28;20579;-93
2022/10/09 02:29:13;;;;;;;8.00;4.88;;;;;;;8.59;78.12;99769.84;4948167;28;20023;-94
2022/10/09 02:31:39;;;;;;;7.72;4.80;;;;;;;8.48;78.29;99758.97;4964514;28;20631;-93
2022/10/09 02:34:07;;;;;;;7.80;5.05;;;;;;;8.46;78.56;99758.41;4949278;28;20033;-94
2022/10/09 02:36:32;;;;;;;9.43;5.20;;;;;;;8.43;78.66;99766.16;4964790;28;20088;-94
2022/10/09 02:38:58;;;;;;;7.13;4.80;;;;;;;8.38;78.46;99758.78;4947956;28;20113;-94
2022/10/09 02:41:23;;;;;;;8.52;5.43;;;;;;;8.39;78.81;99760.41;4948672;28;20045;-94
2022/10/09 02:43:49;;;;;;;9.52;5.53;;;;;;;8.46;79.03;99774.50;4963981;28;20030;-94
2022/10/09 02:46:15;;;;;;;6.93;4.38;;;;;;;8.40;78.54;99766.59;4947436;28;20027;-94
2022/10/09 02:48:41;;;;;;;10.05;5.07;;;;;;;8.29;78.28;99752.19;4963597;28;20029;-94
2022/10/09 02:51:06;;;;;;;9.50;5.55;;;;;;;8.43;78.90;99777.69;4947571;28;20485;-93
2022/10/09 02:53:32;;;;;;;7.40;4.68;;;;;;;8.37;78.62;99780.50;4947725;28;20061;-94
2022/10/09 02:55:57;;;;;;;10.85;5.80;;;;;;;8.27;78.29;99759.69;4947400;28;20508;-93
2022/10/09 02:58:23;;;;;;;9.90;5.32;;;;;;;8.14;78.40;99755.44;4947712;28;20026;-93
2022/10/09 03:00:49;;;;;;;10.05;5.55;;;;;;;8.10;78.04;99755.13;4947657;28;20018;-94
2022/10/09 03:03:15;;;;;;;12.43;6.80;;;;;;;8.06;78.58;99753.97;4947659;28;20026;-93
2022/10/09 03:05:40;;;;;;;11.48;6.30;;;;;;;8.12;78.59;99775.53;4947197;28;20037;-93
2022/10/09 03:08:06;;;;;;;10.48;6.03;;;;;;;8.04;79.11;99779.41;4947403;28;20076;-93
2022/10/09 03:10:31;;;;;;;12.57;6.72;;;;;;;7.95;79.16;99770.13;4948390;28;20026;-93
2022/10/09 03:12:57;;;;;;;11.88;6.60;;;;;;;7.87;79.67;99756.06;4946970;28;20061;-93
2022/10/09 03:15:23;;;;;;;10.38;6.30;;;;;;;7.84;79.20;99750.38;4947016;28;20041;-94
2022/10/09 03:17:48;;;;;;;10.68;6.65;;;;;;;7.84;79.57;99751.19;4963149;28;20030;-93
2022/10/09 03:20:14;;;;;;;10.52;7.47;;;;;;;7.83;79.51;99759.47;4947947;28;20035;-94
2022/10/09 03:22:39;;;;;;;14.77;7.07;;;;;;;7.88;79.49;99771.06;4947657;28;20033;-93
2022/10/09 03:25:06;;;;;;;13.68;7.50;;;;;;;7.82;79.30;99765.88;4946796;28;20050;-94
2022/10/09 03:27:31;;;;;;;17.27;7.20;;;;;;;7.80;79.57;99770.66;4947529;28;20437;-93
2022/10/09 03:29:57;;;;;;;10.95;7.28;;;;;;;7.74;79.64;99761.72;4946713;28;20034;-92
2022/10/09 03:32:23;;;;;;;10.02;6.30;;;;;;;7.77;79.72;99755.06;4946945;28;20026;-94
2022/10/09 03:34:48;;;;;;;10.38;6.50;;;;;;;7.86;79.83;99764.34;4964586;28;20080;-93
2022/10/09 03:37:14;;;;;;;9.45;6.00;;;;;;;7.82;79.97;99753.31;4967640;28;20025;-93
2022/10/09 03:39:39;;;;;;;8.43;5.68;;;;;;;7.86;79.79;99756.28;4966048;28;20488;-93
2022/10/09 03:42:05;;;;;;;9.40;5.93;;;;;;;7.83;80.00;99744.19;4966629;28;20076;-93
2022/10/09 03:44:30;;;;;;;8.40;5.95;;;;;;;7.91;79.78;99764.44;4966946;28;20072;-93
2022/10/09 03:46:56;;;;;;;9.02;6.38;;;;;;;7.93;79.34;99766.88;4966514;28;20026;-93
2022/10/09 03:49:21;;;;;;;8.50;5.45;;;;;;;7.96;79.53;99763.72;4966128;28;20029;-93
2022/10/09 03:51:47;;;;;;;9.98;5.75;;;;;;;8.05;79.13;99765.78;4966189;28;20028;-94
2022/10/09 03:54:12;;;;;;;8.80;5.53;;;;;;;7.91;79.51;99745.69;4982660;28;20454;-93
2022/10/09 03:56:38;;;;;;;9.13;5.75;;;;;;;8.09;79.46;99772.28;4965904;28;20033;-93
2022/10/09 03:59:06;;;;;;;9.90;6.78;;;;;;;8.12;79.32;99772.84;4966220;28;20022;-93
2022/10/09 04:01:31;;;;;;;8.32;6.07;;;;;;;8.06;79.24;99762.03;4981718;28;20041;-93
2022/10/09 04:03:57;;;;;;;9.07;6.22;;;;;;;8.03;79.26;99762.50;4965670;28;20021;-93
2022/10/09 04:06:22;;;;;;;12.48;6.40;;;;;;;8.08;79.23;99777.88;4966203;28;20030;-94
2022/10/09 04:08:48;;;;;;;8.55;5.70;;;;;;;7.94;79.39;99768.50;4965259;28;20105;-93
2022/10/09 04:11:13;;;;;;;9.80;5.18;;;;;;;7.87;78.88;99763.31;4965653;28;20022;-93
2022/10/09 04:13:39;;;;;;;9.15;6.13;;;;;;;7.82;78.32;99766.72;4982138;28;20053;-94
2022/10/09 04:16:04;;;;;;;10.10;5.55;;;;;;;7.82;78.38;99787.31;4966155;28;20033;-93
2022/10/09 04:18:30;;;;;;;10.20;6.10;;;;;;;7.78;78.84;99796.91;4965038;28;20026;-93
2022/10/09 04:20:56;;;;;;;14.43;7.05;;;;;;;7.61;78.70;99783.44;4981720;28;20092;-94
2022/10/09 04:23:23;;;;;;;15.43;7.97;;;;;;;7.67;79.42;99807.41;4980677;28;20022;-93
2022/10/09 04:25:52;;;;;;;14.43;7.65;;;;;;;7.49;79.61;99778.94;4981640;28;20026;-94
2022/10/09 04:28:17;;;;;;;11.90;8.07;;;;;;;7.55;79.58;99798.59;4965633;28;20105;-94
2022/10/09 04:30:43;;;;;;;16.92;7.65;;;;;;;7.66;79.81;99807.69;4965463;28;20033;-93
2022/10/09 04:33:08;;;;;;;13.43;7.95;;;;;;;7.55;79.63;99773.69;4965014;28;20022;-93
2022/10/09 04:35:34;;;;;;;13.30;7.20;;;;;;;7.69;78.88;99785.75;4981286;28;20054;-94
2022/10/09 04:37:59;;;;;;;10.60;7.10;;;;;;;7.85;79.13;99786.84;4964859;28;20021;-93
2022/10/09 04:40:25;;;;;;;14.02;7.13;;;;;;;7.86;79.13;99796.50;4965204;28;20026;-93
2022/10/09 04:42:50;;;;;;;10.68;6.18;;;;;;;7.79;79.39;99777.91;4965090;28;20022;-93
2022/10/09 04:45:19;;;;;;;9.18;5.78;;;;;;;7.88;78.94;99791.72;4981206;28;20030;-93
2022/10/09 04:47:44;;;;;;;12.32;6.35;;;;;;;7.85;79.53;99779.63;4981603;28;20369;-93
2022/10/09 04:50:10;;;;;;;9.13;5.80;;;;;;;8.05;78.84;99792.59;4965319;28;20029;-93
2022/10/09 04:52:35;;;;;;;12.13;5.88;;;;;;;8.03;78.60;99796.53;4966270;28;20015;-93
2022/10/09 04:55:01;;;;;;;14.15;6.18;;;;;;;8.07;78.68;99808.41;4964899;28;20088;-94
2022/10/09 04:57:26;;;;;;;11.73;6.82;;;;;;;8.07;78.42;99803.88;4965635;28;20067;-93
2022/10/09 04:59:52;;;;;;;10.80;6.28;;;;;;;7.99;77.77;99795.41;4965869;28;20025;-93
2022/10/09 05:02:17;;;;;;;8.82;6.00;;;;;;;7.88;78.38;99776.44;4965307;28;20033;-94
2022/10/09 05:04:44;;;;;;;9.13;6.22;;;;;;;8.02;78.76;99798.41;4965126;28;20060;-93
2022/10/09 05:07:10;;;;;;;11.75;5.85;;;;;;;8.05;78.54;99795.28;4966470;28;20032;-93
2022/10/09 05:09:36;;;;;;;10.25;6.68;;;;;;;8.09;78.66;99796.41;4965279;28;20120;-94
2022/10/09 05:12:03;;;;;;;10.85;6.93;;;;;;;8.10;78.02;99786.50;4965079;28;20583;-94
2022/10/09 05:14:29;;;;;;;9.23;6.45;;;;;;;8.27;77.77;99790.00;4965000;28;20026;-93
2022/10/09 05:17:01;;;;;;;9.63;7.25;;;;;;;8.39;77.61;99810.59;4981802;28;20040;-93
2022/10/09 05:19:27;;;;;;;10.40;5.90;;;;;;;8.34;77.20;99797.06;4965986;28;20026;-93
2022/10/09 05:21:53;;;;;;;8.48;6.05;;;;;;;8.46;77.83;99806.69;4965260;28;20021;-93
2022/10/09 05:24:18;;;;;;;10.60;5.80;;;;;;;8.60;77.75;99809.88;4981763;28;20026;-94
2022/10/09 05:26:44;;;;;;;16.92;6.82;;;;;;;8.54;77.31;99810.06;4964229;28;20018;-93
2022/10/09 05:29:09;;;;;;;12.45;7.53;;;;;;;8.61;77.23;99816.88;4964323;28;20026;-94
2022/10/09 05:31:36;;;;;;;7.80;5.95;;;;;;;8.66;77.38;99814.28;4980396;28;20032;-93
2022/10/09 05:34:01;;;;;;;11.15;6.25;;;;;;;8.61;77.29;99808.00;4964876;28;20109;-94
2022/10/09 05:36:27;;;;;;;12.55;8.05;;;;;;;8.74;76.87;99828.34;4976406;28;20568;-94
2022/10/09 05:38:53;;;;;;;10.10;6.22;;;;;;;8.76;76.78;99828.91;4977875;28;20097;-94
2022/10/09 05:41:18;;;;;;;8.93;6.47;;;;;;;8.75;77.02;99824.59;4960911;28;20472;-94
2022/10/09 05:43:45;;;;;;;13.68;6.63;;;;;;;8.69;76.83;99824.53;4960398;28;20472;-94
2022/10/09 05:46:11;;;;;;;14.55;6.82;;;;;;;8.90;76.68;99851.69;4961007;28;20041;-94
2022/10/09 05:48:38;;;;;;;13.25;7.65;;;;;;;8.81;76.64;99829.00;4993630;28;20040;-94
2022/10/09 05:51:11;;;;;;;14.52;7.30;;;;;;;9.06;76.39;99850.84;4960979;28;20113;-94
2022/10/09 05:53:37;;;;;;;12.63;7.10;;;;;;;9.01;76.72;99845.41;4992845;28;20125;-92
2022/10/09 05:56:16;;;;;;;18.52;7.30;;;;;;;9.15;76.83;99855.78;4960513;28;20038;-94
2022/10/09 05:58:48;;;;;;;11.35;7.43;;;;;;;9.09;76.21;99845.00;4961082;28;20042;-92
2022/10/09 06:01:13;;;;;;;10.70;6.90;;;;;;;9.13;75.86;99833.75;4961168;28;20018;-92
2022/10/09 06:03:39;;;;;;;12.48;6.60;;;;;;;9.23;75.96;99842.75;4977829;28;20393;-93
2022/10/09 06:06:05;;;;;;;12.63;6.63;;;;;;;9.34;75.62;99850.94;4976550;28;20027;-95
2022/10/09 06:08:32;;;;;;;10.55;6.70;;;;;;;9.45;75.79;99850.84;4977365;28;20038;-93
2022/10/09 06:10:58;;;;;;;11.13;7.13;;;;;;;9.58;75.52;99871.16;4976581;28;20019;-93
2022/10/09 06:13:23;;;;;;;15.55;8.00;;;;;;;9.71;75.37;99868.13;4961144;28;20022;-93
2022/10/09 06:15:53;;;;;;;15.20;8.40;;;;;;;9.75;74.50;99863.03;4960911;28;20031;-93
2022/10/09 06:18:19;;;;;;;11.70;7.63;;;;;;;9.80;74.57;99860.41;4961375;28;20034;-92
2022/10/09 06:20:58;;;;;;;11.57;7.13;;;;;;;9.99;74.40;99878.94;4961106;28;20081;-93
2022/10/09 06:23:23;;;;;;;18.83;7.53;;;;;;;10.10;73.77;99878.75;4961444;28;20125;-92
2022/10/09 06:26:01;;;;;;;13.98;7.70;;;;;;;10.20;73.87;99861.13;4961145;28;20097;-92
2022/10/09 06:28:27;;;;;;;10.20;6.78;;;;;;;10.25;73.60;99861.16;4960534;28;20089;-93
2022/10/09 06:30:53;;;;;;;10.95;7.05;;;;;;;10.48;73.21;99885.13;4961527;28;20047;-93
2022/10/09 06:33:18;;;;;;;16.08;7.50;;;;;;;10.56;72.68;99881.13;4960663;28;20476;-94
2022/10/09 06:35:44;;;;;;;17.83;7.88;;;;;;;10.80;72.73;99883.50;4960844;28;20058;-94
2022/10/09 06:38:10;;;;;;;11.57;8.07;;;;;;;10.89;72.25;99890.03;4976551;28;20085;-93
2022/10/09 06:40:38;;;;;;;13.55;8.18;;;;;;;11.00;71.89;99880.13;4976794;28;20026;-94
2022/10/09 06:43:04;;;;;;;15.73;9.02;;;;;;;11.08;71.56;99887.72;4960688;28;20057;-94
2022/10/09 06:45:30;;;;;;;16.08;8.70;;;;;;;11.10;71.41;99881.03;4940897;28;20029;-93
2022/10/09 06:47:55;;;;;;;14.15;8.52;;;;;;;11.27;71.17;99888.16;4927627;28;20035;-93
2022/10/09 06:50:23;;;;;;;15.57;9.25;;;;;;;11.33;71.35;99885.22;4929311;28;20031;-94
2022/10/09 06:52:49;;;;;;;13.80;9.48;;;;;;;11.49;71.00;99883.41;4929756;28;20473;-93
2022/10/09 06:55:14;;;;;;;11.65;8.27;;;;;;;11.54;70.14;99871.84;4928953;28;20117;-93
2022/10/09 06:57:40;;;;;;;11.10;8.32;;;;;;;11.65;69.71;99886.19;4945273;28;20030;-93
2022/10/09 07:00:06;;;;;;;11.82;8.10;;;;;;;11.95;69.90;99890.91;4951780;28;20486;-93
2022/10/09 07:02:32;;;;;;;14.10;9.02;;;;;;;11.97;69.57;99886.06;4945060;28;20026;-93
2022/10/09 07:04:57;;;;;;;14.38;7.80;;;;;;;12.12;69.31;99885.31;4960850;28;20030;-94
2022/10/09 07:07:23;;;;;;;14.63;8.52;;;;;;;12.42;68.94;99902.66;4960594;28;20043;-92
2022/10/09 07:09:48;;;;;;;14.77;8.65;;;;;;;12.53;68.23;99904.28;4928927;28;20030;-94
2022/10/09 07:12:14;;;;;;;14.05;8.48;;;;;;;12.74;67.85;99911.34;4928153;28;20034;-92
2022/10/09 07:14:39;;;;;;;17.92;9.00;;;;;;;12.66;67.66;99884.06;4943645;28;20492;-93
2022/10/09 07:17:05;;;;;;;16.20;8.90;;;;;;;12.92;67.47;99885.66;4930300;28;20034;-92
2022/10/09 07:19:30;;;;;;;13.82;8.98;;;;;;;13.13;67.03;99894.56;4928013;28;20484;-93
2022/10/09 07:21:56;;;;;;;16.00;9.30;;;;;;;13.18;66.96;99895.63;4960050;28;20099;-92
2022/10/09 07:24:24;;;;;;;16.08;9.95;;;;;;;13.22;67.08;99915.63;4952617;28;20096;-93
2022/10/09 07:26:50;;;;;;;14.02;8.48;;;;;;;13.34;66.68;99898.09;4979893;28;20092;-93
2022/10/09 07:29:26;;;;;;;;;;;;;;;;;;;;;
2022/10/09 07:31:52;;;;;;;15.30;8.27;;;;;;;13.73;65.41;99892.00;4982316;28;20038;-93
2022/10/09 07:34:18;;;;;;;12.20;8.63;;;;;;;13.81;65.13;99892.53;4947167;28;20030;-94
2022/10/09 07:36:43;;;;;;;9.38;7.63;;;;;;;13.99;64.49;99902.75;4929785;28;20054;-93
2022/10/09 07:39:09;;;;;;;8.85;6.93;;;;;;;14.08;64.75;99897.56;4928469;28;20030;-93
2022/10/09 07:42:13;;;;;;;11.90;6.22;;;;;;;14.08;64.12;99900.25;4943847;28;20034;-93
2022/10/09 07:44:41;;;;;;;14.07;7.85;;;;;;;14.33;63.91;99891.19;4944903;28;20031;-91
2022/10/09 07:47:06;;;;;;;11.55;7.55;;;;;;;14.45;63.20;99888.13;4943589;28;20027;-93
2022/10/09 07:49:34;;;;;;;12.93;7.10;;;;;;;14.74;62.73;99905.28;4927879;28;20070;-92
2022/10/09 07:52:00;;;;;;;10.70;8.00;;;;;;;14.72;63.96;99895.81;4959681;28;20027;-93
2022/10/09 07:54:25;;;;;;;12.07;7.90;;;;;;;14.86;62.24;99888.66;4928330;28;20030;-93
2022/10/09 07:56:51;;;;;;;13.85;6.97;;;;;;;15.05;61.81;99893.38;4943542;28;20481;-93
2022/10/09 07:59:22;;;;;;;10.25;6.50;;;;;;;15.26;61.19;99899.41;4957835;28;20030;-94
2022/10/09 08:01:47;;;;;;;13.77;7.05;;;;;;;15.35;60.98;99903.13;4928239;28;20109;-93
2022/10/09 08:04:19;;;;;;;9.13;6.18;;;;;;;15.42;60.08;99887.31;4927881;28;20045;-94
2022/10/09 08:06:45;;;;;;;7.35;6.00;;;;;;;15.51;59.55;99882.06;4928257;28;20089;-93
2022/10/09 08:09:10;;;;;;;11.73;7.93;;;;;;;15.54;59.91;99892.31;4926892;28;20038;-93
2022/10/09 08:11:39;;;;;;;9.27;6.50;;;;;;;15.65;59.37;99882.97;4943423;28;20117;-93
2022/10/09 08:14:10;;;;;;;8.43;6.00;;;;;;;15.80;59.46;99881.22;4943864;28;20187;-93
2022/10/09 08:16:36;;;;;;;7.78;5.75;;;;;;;15.93;59.33;99881.28;4942515;28;20121;-94
2022/10/09 08:19:04;;;;;;;9.43;6.47;;;;;;;16.09;59.12;99895.50;4942873;28;20069;-94
2022/10/09 08:21:31;;;;;;;10.18;6.20;;;;;;;16.09;58.25;99884.63;4942875;28;20027;-93
2022/10/09 08:23:57;;;;;;;12.85;5.97;;;;;;;16.34;58.39;99905.19;4943077;28;20031;-93
2022/10/09 08:26:23;;;;;;;8.23;6.05;;;;;;;16.45;58.85;99905.84;4943654;28;20042;-93
2022/10/09 08:28:57;;;;;;;7.05;5.90;;;;;;;16.48;58.43;99890.88;4926665;28;20117;-93
2022/10/09 08:31:22;;;;;;;9.23;6.10;;;;;;;16.54;58.24;99882.34;4928298;28;20027;-93
2022/10/09 08:33:51;;;;;;;7.95;5.60;;;;;;;16.70;57.90;99885.63;4959541;28;20408;-93
2022/10/09 08:36:17;;;;;;;10.05;5.80;;;;;;;16.89;56.90;99882.09;4967186;28;20057;-93
2022/10/09 08:38:42;;;;;;;10.15;5.65;;;;;;;17.00;56.89;99894.44;4977906;28;20038;-93
2022/10/09 08:41:28;;;;;;;6.85;5.32;;;;;;;16.96;56.36;99877.88;4979070;28;20031;-93
2022/10/09 08:44:05;;;;;;;7.22;5.45;;;;;;;17.16;55.38;99890.34;4965033;28;20046;-93
2022/10/09 08:46:53;;;;;;;6.25;5.07;;;;;;;17.33;55.16;99889.75;4947159;28;20033;-93
2022/10/09 08:49:56;;;;;;;7.70;5.75;;;;;;;17.47;55.77;99889.78;4962794;28;20483;-93
2022/10/09 08:52:27;;;;;;;6.72;5.05;;;;;;;17.43;54.62;99858.81;4957469;28;20516;-93
2022/10/09 08:54:54;;;;;;;6.28;4.50;;;;;;;17.42;54.94;99853.66;4946606;28;20030;-94
2022/10/09 08:57:22;;;;;;;6.45;5.03;;;;;;;17.61;55.16;99869.91;4961450;28;20504;-93
2022/10/09 08:59:47;;;;;;;7.35;5.18;;;;;;;17.55;55.18;99861.81;4961437;28;20488;-93
2022/10/09 09:02:34;;;;;;;7.22;5.10;;;;;;;17.68;54.89;99862.94;4977147;28;20093;-93
2022/10/09 09:05:06;;;;;;;8.35;5.90;;;;;;;17.84;54.58;99873.53;4962408;28;20029;-92
2022/10/09 09:07:45;;;;;;;7.18;4.55;;;;;;;17.86;54.34;99863.94;4994963;28;20037;-93
2022/10/09 09:10:16;;;;;;;6.28;4.28;;;;;;;18.03;53.90;99873.41;4945226;28;20034;-93
2022/10/09 09:13:03;;;;;;;5.23;4.33;;;;;;;18.03;53.46;99857.84;4977088;28;20028;-93
2022/10/09 09:15:35;;;;;;;7.70;4.25;;;;;;;18.24;53.20;99874.59;4946946;28;20030;-94
2022/10/09 09:18:14;;;;;;;5.65;4.40;;;;;;;18.15;52.63;99847.22;4977727;28;20448;-93
2022/10/09 09:20:55;;;;;;;5.70;4.13;;;;;;;18.38;52.71;99871.78;4976665;28;20026;-93
2022/10/09 09:23:27;;;;;;;9.87;4.43;;;;;;;18.44;52.27;99862.38;4960626;28;20026;-92
2022/10/09 09:25:53;;;;;;;6.72;4.30;;;;;;;18.55;51.33;99868.41;4961462;28;20033;-94
2022/10/09 09:28:33;;;;;;;4.85;3.80;;;;;;;18.50;51.80;99854.91;4944287;28;20034;-93
2022/10/09 09:31:02;;;;;;;6.85;4.22;;;;;;;18.63;51.73;99867.66;4944467;28;20121;-94
2022/10/09 09:33:39;;;;;;;4.28;3.30;;;;;;;18.69;51.77;99869.16;4977446;28;20033;-93
2022/10/09 09:36:16;;;;;;;6.63;4.80;;;;;;;18.78;51.41;99875.50;4971799;28;20077;-93
2022/10/09 09:38:42;;;;;;;5.75;3.95;;;;;;;18.81;51.08;99871.34;4996326;28;20484;-93
2022/10/09 09:41:07;;;;;;;7.20;4.28;;;;;;;18.89;50.94;99878.00;4997295;28;20072;-94
2022/10/09 09:43:33;;;;;;;4.53;3.35;;;;;;;18.93;49.91;99871.59;4996242;28;20497;-92
2022/10/09 09:45:59;;;;;;;5.80;3.60;;;;;;;18.87;49.88;99878.28;4996171;28;20120;-92
2022/10/09 09:48:40;;;;;;;11.68;3.67;;;;;;;19.04;50.04;99874.84;4979757;28;20022;-92
2022/10/09 09:51:17;;;;;;;5.57;3.67;;;;;;;18.97;50.36;99849.94;4996090;28;20042;-93
2022/10/09 09:53:48;;;;;;;8.40;3.70;;;;;;;19.09;50.55;99850.16;4965413;28;20405;-93
2022/10/09 09:56:13;;;;;;;6.93;3.75;;;;;;;19.06;49.52;99841.78;4980743;28;20470;-93
2022/10/09 09:58:47;;;;;;;6.22;3.65;;;;;;;19.05;49.47;99832.81;4980315;28;20026;-92
2022/10/09 10:01:24;;;;;;;5.82;3.53;;;;;;;19.27;49.57;99852.97;4964042;28;20022;-93
2022/10/09 10:03:53;;;;;;;4.10;3.00;;;;;;;19.24;48.99;99834.50;4963276;28;20064;-93
2022/10/09 10:06:29;;;;;;;5.03;3.50;;;;;;;19.46;49.01;99861.72;4980183;28;20099;-93
2022/10/09 10:09:11;;;;;;;6.53;3.17;;;;;;;19.36;48.90;99832.78;4979744;28;20026;-93
2022/10/09 10:11:37;;;;;;;6.25;3.65;;;;;;;19.25;47.88;99827.91;4980287;28;20057;-94
2022/10/09 10:14:07;;;;;;;6.43;3.45;;;;;;;19.42;48.44;99843.53;4963631;28;20045;-94
2022/10/09 10:16:33;;;;;;;4.18;2.70;;;;;;;19.40;45.58;99824.75;4979607;28;20125;-95
2022/10/09 10:18:58;;;;;;;3.70;2.75;;;;;;;19.54;45.63;99839.09;4963339;28;20034;-94
2022/10/09 10:21:24;;;;;;;5.03;2.50;;;;;;;19.57;45.51;99838.47;4964053;28;20459;-94
2022/10/09 10:23:59;;;;;;;7.45;2.70;;;;;;;19.60;45.31;99826.09;4968276;28;20037;-93
2022/10/09 10:26:30;;;;;;;4.25;2.65;;;;;;;19.74;45.75;99831.47;4968603;28;20539;-93
2022/10/09 10:29:09;;;;;;;3.60;2.60;;;;;;;19.84;44.92;99833.06;4968240;28;20093;-93
2022/10/09 10:32:05;;;;;;;3.80;2.72;;;;;;;19.86;44.40;99841.75;4985202;28;20131;-93
2022/10/09 10:34:34;;;;;;;4.20;2.58;;;;;;;19.77;44.88;99819.88;5000272;28;20033;-93
2022/10/09 10:37:27;;;;;;;4.15;2.78;;;;;;;19.96;44.77;99836.81;4965416;28;20039;-94
2022/10/09 10:39:56;;;;;;;3.40;2.58;;;;;;;19.89;43.29;99827.47;4997749;28;20490;-93
2022/10/09 10:42:26;;;;;;;5.78;2.47;;;;;;;19.91;43.42;99820.56;4979865;28;20030;-92
2022/10/09 10:45:06;;;;;;;4.45;2.65;;;;;;;19.99;43.62;99838.09;4964690;28;20034;-94
2022/10/09 10:47:34;;;;;;;4.95;2.72;;;;;;;20.02;43.60;99840.19;4948719;28;20057;-93
2022/10/09 10:50:00;;;;;;;5.15;2.92;;;;;;;19.99;43.92;99819.75;4947702;28;20038;-94
2022/10/09 10:52:47;;;;;;;3.90;2.95;;;;;;;20.12;43.68;99834.41;4949793;28;20030;-94
2022/10/09 10:55:51;;;;;;;4.57;2.60;;;;;;;20.22;43.06;99836.00;4980238;28;20065;-94
2022/10/09 10:58:31;;;;;;;7.45;2.60;;;;;;;20.22;43.56;99818.81;4902242;29;20111;-93
2022/10/09 11:01:05;;;;;;;3.20;2.63;;;;;;;20.28;43.07;99829.25;4871750;29;20028;-92
2022/10/09 11:04:00;;;;;;;3.70;2.90;;;;;;;20.14;42.41;99804.81;4950234;28;20034;-93
2022/10/09 11:06:58;;;;;;;3.42;2.53;;;;;;;20.20;42.38;99805.44;4948194;28;20121;-93
2022/10/09 11:09:27;;;;;;;4.68;2.65;;;;;;;20.38;42.50;99814.47;4965722;28;20513;-93
2022/10/09 11:12:10;;;;;;;6.80;2.83;;;;;;;20.32;42.29;99794.66;4981264;28;20080;-96
2022/10/09 11:14:56;;;;;;;2.80;2.40;;;;;;;20.37;42.17;99793.69;4974417;28;20052;-95
2022/10/09 11:17:30;;;;;;;4.15;2.65;;;;;;;20.46;41.93;99799.16;4969381;28;20023;-95
2022/10/09 11:20:14;;;;;;;4.18;2.50;;;;;;;20.38;42.09;99806.25;4965092;28;20550;-95
2022/10/09 11:22:52;;;;;;;4.30;2.55;;;;;;;20.46;40.95;99810.09;4967051;28;20030;-94
2022/10/09 11:26:02;;;;;;;2.97;2.40;;;;;;;20.42;40.56;99776.31;4998223;28;20054;-94
2022/10/09 11:28:33;;;;;;;5.78;2.55;;;;;;;20.38;41.41;99774.22;4944290;28;20039;-94
2022/10/09 11:31:13;;;;;;;7.63;2.85;;;;;;;20.55;41.11;99794.47;4949041;28;20030;-93
2022/10/09 11:33:53;;;;;;;3.97;2.53;;;;;;;20.45;41.79;99765.53;4963962;28;20030;-93
2022/10/09 11:36:23;;;;;;;3.30;2.60;;;;;;;20.61;41.30;99790.47;4958347;28;20129;-94
2022/10/09 11:39:04;;;;;;;3.50;2.47;;;;;;;20.50;41.41;99780.97;4996634;28;20125;-94
2022/10/09 11:41:29;;;;;;;5.40;2.60;;;;;;;20.50;41.94;99764.53;4979986;28;20050;-95
2022/10/09 11:44:25;;;;;;;4.30;2.80;;;;;;;20.62;41.45;99780.31;4980713;28;20109;-95
2022/10/09 11:47:10;;;;;;;3.83;2.55;;;;;;;20.67;41.50;99786.44;4999984;28;20036;-94
2022/10/09 11:49:45;;;;;;;4.28;3.00;;;;;;;20.68;41.16;99774.34;5013876;28;20039;-94